createdAt,value
2023-02-17T00:00:34.829Z,70.7
2023-02-17T00:01:34.896Z,71.08
2023-02-17T00:02:35.978Z,71.18
2023-02-17T00:03:36.145Z,70.79
2023-02-17T00:04:36.737Z,70.51
2023-02-17T00:05:36.969Z,70.7
2023-02-17T00:06:37.854Z,70.79
2023-02-17T00:07:38.128Z,70.32
2023-02-17T00:08:39.040Z,70.7
2023-02-17T00:09:40.406Z,71.18
2023-02-17T00:10:40.625Z,70.23
2023-02-17T00:11:41.082Z,70.23
2023-02-17T00:12:41.731Z,70.32
2023-02-17T00:13:41.953Z,70.7
2023-02-17T00:14:41.909Z,70.61
2023-02-17T00:15:42.886Z,71.18
2023-02-17T00:16:44.006Z,70.61
2023-02-17T00:17:44.211Z,70.89
2023-02-17T00:18:44.169Z,71.56
2023-02-17T00:19:45.114Z,71.66
2023-02-17T00:20:45.773Z,71.37
2023-02-17T00:21:46.615Z,71.75
2023-02-17T00:22:47.173Z,71.94
2023-02-17T00:23:47.703Z,72.03
2023-02-17T00:24:48.098Z,72.32
2023-02-17T00:25:48.730Z,72.03
2023-02-17T00:26:49.251Z,71.84
2023-02-17T00:27:49.900Z,71.37
2023-02-17T00:28:50.403Z,71.75
2023-02-17T00:29:50.916Z,71.94
2023-02-17T00:30:51.255Z,71.94
2023-02-17T00:31:51.846Z,71.84
2023-02-17T00:32:52.735Z,71.94
2023-02-17T00:33:53.660Z,71.08
2023-02-17T00:34:54.594Z,70.89
2023-02-17T00:35:54.812Z,71.08
2023-02-17T00:36:55.308Z,71.27
2023-02-17T00:37:55.900Z,71.08
2023-02-17T00:38:56.662Z,71.27
2023-02-17T00:39:57.316Z,70.89
2023-02-17T00:40:57.539Z,70.89
2023-02-17T00:41:57.914Z,69.94
2023-02-17T00:42:58.109Z,69.75
2023-02-17T00:43:58.387Z,69.66
2023-02-17T00:44:59.024Z,69.85
2023-02-17T00:45:59.678Z,69.85
2023-02-17T00:46:59.721Z,69.56
2023-02-17T00:48:00.113Z,70.79
2023-02-17T00:49:00.675Z,70.42
2023-02-17T00:50:01.332Z,70.04
2023-02-17T00:51:01.995Z,69.27
2023-02-17T00:52:03.071Z,69.27
2023-02-17T00:53:03.646Z,68.9
2023-02-17T00:54:03.868Z,68.9
2023-02-17T00:55:04.380Z,68.99
2023-02-17T00:56:05.613Z,69.09
2023-02-17T00:57:05.889Z,69.18
2023-02-17T00:58:06.389Z,69.18
2023-02-17T00:59:06.612Z,68.71
2023-02-17T01:00:06.891Z,68.61
2023-02-17T01:01:07.119Z,69.02
2023-02-17T01:02:07.560Z,68.46
2023-02-17T01:03:08.083Z,68.65
2023-02-17T01:04:09.028Z,68.8
2023-02-17T01:05:10.023Z,68.42
2023-02-17T01:06:11.039Z,68.65
2023-02-17T01:07:11.569Z,68.33
2023-02-17T01:08:12.174Z,68.46
2023-02-17T01:09:12.405Z,68.8
2023-02-17T01:10:13.101Z,68.42
2023-02-17T01:11:14.063Z,68.99
2023-02-17T01:12:14.500Z,69.09
2023-02-17T01:13:15.431Z,68.33
2023-02-17T01:14:15.367Z,68.8
2023-02-17T01:15:15.899Z,68.33
2023-02-17T01:16:16.651Z,69.37
2023-02-17T01:17:17.216Z,68.23
2023-02-17T01:18:17.069Z,68.23
2023-02-17T01:19:18.004Z,68.42
2023-02-17T01:20:18.951Z,67.94
2023-02-17T01:21:19.306Z,68.23
2023-02-17T01:22:20.744Z,67.85
2023-02-17T01:23:21.318Z,68.61
2023-02-17T01:24:21.555Z,68.13
2023-02-17T01:25:22.228Z,68.13
2023-02-17T01:26:22.974Z,67.94
2023-02-17T01:27:23.201Z,67.94
2023-02-17T01:28:24.158Z,67.94
2023-02-17T01:29:24.355Z,67.57
2023-02-17T01:30:24.352Z,68.42
2023-02-17T01:31:24.950Z,68.23
2023-02-17T01:32:25.138Z,67.57
2023-02-17T01:33:26.073Z,67.47
2023-02-17T01:34:27.046Z,68.04
2023-02-17T01:35:27.256Z,68.23
2023-02-17T01:36:28.177Z,68.04
2023-02-17T01:37:28.438Z,68.23
2023-02-17T01:38:28.716Z,67.28
2023-02-17T01:39:29.935Z,67.09
2023-02-17T01:40:30.430Z,67.22
2023-02-17T01:41:30.649Z,67.13
2023-02-17T01:42:31.021Z,67.09
2023-02-17T01:43:31.270Z,67.6
2023-02-17T01:44:32.340Z,68.13
2023-02-17T01:45:32.706Z,67.57
2023-02-17T01:46:33.761Z,67.13
2023-02-17T01:47:33.963Z,67.28
2023-02-17T01:48:34.635Z,67.22
2023-02-17T01:49:35.579Z,67.13
2023-02-17T01:50:36.791Z,67.22
2023-02-17T01:51:37.155Z,66.71
2023-02-17T01:52:38.199Z,67.32
2023-02-17T01:53:38.755Z,68.04
2023-02-17T01:54:39.254Z,67.5
2023-02-17T01:55:39.755Z,68.04
2023-02-17T01:56:39.984Z,67.32
2023-02-17T01:57:40.216Z,67.19
2023-02-17T01:58:40.433Z,66.84
2023-02-17T01:59:41.084Z,66.84
2023-02-17T02:00:41.644Z,66.74
2023-02-17T02:01:42.276Z,66.94
2023-02-17T02:02:42.736Z,67.79
2023-02-17T02:03:43.333Z,67.13
2023-02-17T02:04:43.828Z,67.41
2023-02-17T02:05:44.784Z,66.94
2023-02-17T02:06:45.715Z,66.94
2023-02-17T02:07:45.968Z,66.74
2023-02-17T02:08:46.265Z,66.94
2023-02-17T02:09:47.189Z,66.94
2023-02-17T02:10:48.432Z,67.03
2023-02-17T02:11:49.073Z,67.03
2023-02-17T02:12:50.123Z,67.22
2023-02-17T02:13:50.035Z,67.69
2023-02-17T02:14:50.566Z,68.07
2023-02-17T02:15:51.210Z,68.27
2023-02-17T02:16:52.536Z,68.46
2023-02-17T02:17:53.464Z,68.55
2023-02-17T02:18:53.995Z,68.17
2023-02-17T02:19:54.901Z,67.22
2023-02-17T02:20:55.835Z,66.84
2023-02-17T02:21:56.342Z,67.41
2023-02-17T02:22:57.488Z,67.32
2023-02-17T02:23:58.087Z,67.13
2023-02-17T02:24:58.313Z,67.22
2023-02-17T02:25:58.519Z,66.65
2023-02-17T02:26:58.939Z,66.94
2023-02-17T02:27:58.878Z,67.5
2023-02-17T02:28:59.792Z,67.13
2023-02-17T02:30:01.050Z,67.6
2023-02-17T02:31:01.203Z,67.88
2023-02-17T02:32:01.936Z,67.32
2023-02-17T02:33:02.798Z,67.69
2023-02-17T02:34:03.493Z,67.98
2023-02-17T02:35:04.414Z,67.88
2023-02-17T02:36:05.342Z,67.5
2023-02-17T02:37:06.036Z,67.22
2023-02-17T02:38:07.229Z,67.03
2023-02-17T02:39:07.507Z,66.94
2023-02-17T02:40:08.153Z,67.5
2023-02-17T02:41:09.101Z,67.32
2023-02-17T02:42:10.033Z,67.57
2023-02-17T02:43:10.367Z,67.57
2023-02-17T02:44:10.585Z,67.6
2023-02-17T02:45:11.519Z,68.36
2023-02-17T02:46:12.746Z,67.6
2023-02-17T02:47:12.472Z,67.5
2023-02-17T02:48:12.986Z,67.13
2023-02-17T02:49:13.185Z,67.13
2023-02-17T02:50:13.558Z,67.6
2023-02-17T02:51:14.202Z,67.79
2023-02-17T02:52:14.748Z,67.6
2023-02-17T02:53:15.220Z,67.03
2023-02-17T02:54:15.767Z,67.13
2023-02-17T02:55:15.995Z,66.94
2023-02-17T02:56:16.647Z,66.65
2023-02-17T02:57:16.773Z,66.46
2023-02-17T02:58:16.981Z,67.03
2023-02-17T02:59:18.190Z,67.03
2023-02-17T03:00:18.402Z,67.32
2023-02-17T03:01:19.615Z,67.32
2023-02-17T03:02:19.658Z,67.03
2023-02-17T03:03:20.414Z,66.94
2023-02-17T03:04:20.818Z,66.94
2023-02-17T03:05:21.757Z,67.32
2023-02-17T03:06:22.421Z,67.13
2023-02-17T03:07:23.081Z,66.94
2023-02-17T03:08:23.668Z,67.13
2023-02-17T03:09:23.927Z,67.03
2023-02-17T03:10:24.851Z,66.65
2023-02-17T03:11:25.064Z,66.94
2023-02-17T03:12:25.277Z,67.32
2023-02-17T03:13:25.621Z,67.6
2023-02-17T03:14:26.106Z,67.41
2023-02-17T03:15:27.032Z,68.55
2023-02-17T03:16:27.025Z,68.07
2023-02-17T03:17:27.492Z,67.6
2023-02-17T03:18:27.889Z,68.04
2023-02-17T03:19:28.221Z,68.17
2023-02-17T03:20:29.141Z,68.36
2023-02-17T03:21:29.771Z,68.8
2023-02-17T03:22:30.264Z,69.09
2023-02-17T03:23:30.913Z,68.52
2023-02-17T03:24:31.236Z,68.71
2023-02-17T03:25:31.778Z,68.8
2023-02-17T03:26:32.850Z,69.18
2023-02-17T03:27:33.062Z,69.09
2023-02-17T03:28:34.127Z,69.18
2023-02-17T03:29:34.053Z,69.09
2023-02-17T03:30:34.337Z,69.09
2023-02-17T03:31:36.625Z,68.93
2023-02-17T03:32:35.529Z,68.99
2023-02-17T03:33:36.548Z,68.71
2023-02-17T03:34:37.792Z,68.93
2023-02-17T03:35:38.715Z,69.31
2023-02-17T03:36:39.287Z,69.41
2023-02-17T03:37:39.782Z,69.66
2023-02-17T03:38:40.033Z,69.56
2023-02-17T03:39:40.295Z,69.37
2023-02-17T03:40:41.258Z,69.27
2023-02-17T03:41:42.185Z,69.27
2023-02-17T03:42:43.104Z,69.27
2023-02-17T03:43:43.396Z,69.18
2023-02-17T03:44:43.698Z,69.27
2023-02-17T03:45:44.713Z,69.66
2023-02-17T03:46:45.703Z,69.66
2023-02-17T03:47:46.336Z,69.46
2023-02-17T03:48:47.261Z,69.66
2023-02-17T03:49:47.907Z,69.09
2023-02-17T03:50:49.110Z,69.46
2023-02-17T03:51:49.759Z,69.46
2023-02-17T03:52:49.677Z,69.94
2023-02-17T03:53:50.439Z,70.13
2023-02-17T03:54:50.998Z,70.23
2023-02-17T03:55:51.923Z,70.23
2023-02-17T03:56:52.580Z,70.7
2023-02-17T03:57:53.789Z,70.42
2023-02-17T03:58:54.302Z,70.42
2023-02-17T03:59:54.957Z,70.13
2023-02-17T04:00:55.303Z,70.42
2023-02-17T04:01:56.445Z,70.42
2023-02-17T04:02:57.095Z,70.51
2023-02-17T04:03:57.532Z,70.89
2023-02-17T04:04:57.928Z,70.99
2023-02-17T04:05:58.129Z,70.89
2023-02-17T04:06:58.990Z,71.27
2023-02-17T04:07:59.211Z,70.7
2023-02-17T04:08:59.647Z,70.7
2023-02-17T04:10:00.232Z,70.99
2023-02-17T04:11:00.115Z,71.08
2023-02-17T04:12:01.349Z,71.08
2023-02-17T04:13:01.852Z,71.18
2023-02-17T04:14:02.224Z,70.7
2023-02-17T04:15:02.550Z,71.27
2023-02-17T04:16:02.549Z,71.18
2023-02-17T04:17:03.326Z,71.84
2023-02-17T04:18:03.834Z,71.94
2023-02-17T04:19:04.330Z,71.94
2023-02-17T04:20:05.256Z,71.37
2023-02-17T04:21:05.191Z,71.75
2023-02-17T04:22:06.101Z,71.46
2023-02-17T04:23:07.306Z,71.08
2023-02-17T04:24:07.700Z,71.08
2023-02-17T04:25:08.010Z,71.56
2023-02-17T04:26:09.665Z,71.37
2023-02-17T04:27:09.588Z,71.08
2023-02-17T04:28:10.505Z,70.61
2023-02-17T04:29:10.441Z,71.08
2023-02-17T04:30:12.460Z,71.75
2023-02-17T04:31:12.213Z,71.27
2023-02-17T04:32:12.233Z,71.66
2023-02-17T04:33:12.724Z,71.18
2023-02-17T04:34:13.146Z,71.18
2023-02-17T04:35:14.373Z,71.27
2023-02-17T04:36:14.770Z,71.46
2023-02-17T04:37:15.129Z,71.27
2023-02-17T04:38:16.336Z,71.27
2023-02-17T04:39:17.738Z,70.32
2023-02-17T04:40:18.339Z,70.7
2023-02-17T04:41:18.695Z,70.89
2023-02-17T04:42:19.220Z,71.08
2023-02-17T04:43:19.872Z,71.56
2023-02-17T04:44:20.965Z,71.37
2023-02-17T04:45:21.453Z,71.75
2023-02-17T04:46:21.803Z,71.27
2023-02-17T04:47:22.130Z,70.89
2023-02-17T04:48:22.341Z,72.13
2023-02-17T04:49:22.559Z,72.99
2023-02-17T04:50:24.279Z,72.79
2023-02-17T04:51:23.197Z,73.46
2023-02-17T04:52:23.820Z,73.36
2023-02-17T04:53:24.022Z,73.08
2023-02-17T04:54:24.638Z,72.99
2023-02-17T04:55:25.185Z,72.99
2023-02-17T04:56:26.122Z,73.65
2023-02-17T04:57:26.366Z,73.27
2023-02-17T04:58:27.023Z,73.84
2023-02-17T04:59:28.372Z,74.51
2023-02-17T05:00:28.000Z,73.84
2023-02-17T05:01:28.988Z,72.79
2023-02-17T05:02:29.144Z,73.27
2023-02-17T05:03:30.084Z,73.27
2023-02-17T05:04:30.357Z,73.55
2023-02-17T05:05:31.040Z,73.36
2023-02-17T05:06:31.294Z,73.18
2023-02-17T05:07:32.236Z,73.27
2023-02-17T05:08:32.483Z,72.13
2023-02-17T05:09:32.716Z,72.13
2023-02-17T05:10:33.261Z,72.51
2023-02-17T05:11:33.171Z,72.7
2023-02-17T05:12:34.366Z,72.7
2023-02-17T05:13:35.007Z,72.79
2023-02-17T05:14:36.021Z,72.89
2023-02-17T05:15:38.625Z,72.7
2023-02-17T05:16:36.790Z,72.22
2023-02-17T05:17:37.021Z,72.99
2023-02-17T05:18:37.224Z,72.7
2023-02-17T05:19:37.864Z,72.6
2023-02-17T05:20:38.099Z,72.79
2023-02-17T05:21:38.356Z,72.89
2023-02-17T05:22:39.295Z,72.7
2023-02-17T05:23:39.788Z,72.99
2023-02-17T05:24:43.033Z,73.08
2023-02-17T05:25:41.291Z,72.32
2023-02-17T05:26:41.937Z,71.94
2023-02-17T05:27:42.758Z,72.22
2023-02-17T05:28:43.265Z,72.32
2023-02-17T05:29:44.192Z,72.22
2023-02-17T05:30:45.184Z,72.41
2023-02-17T05:31:45.695Z,71.94
2023-02-17T05:32:45.897Z,71.56
2023-02-17T05:33:46.533Z,71.37
2023-02-17T05:34:47.106Z,71.84
2023-02-17T05:35:47.021Z,72.13
2023-02-17T05:36:48.396Z,72.03
2023-02-17T05:37:48.323Z,72.13
2023-02-17T05:38:49.314Z,72.03
2023-02-17T05:39:50.348Z,71.56
2023-02-17T05:40:50.933Z,70.7
2023-02-17T05:41:51.452Z,70.89
2023-02-17T05:42:52.079Z,71.27
2023-02-17T05:43:52.754Z,71.94
2023-02-17T05:44:53.491Z,72.89
2023-02-17T05:45:53.766Z,72.79
2023-02-17T05:46:54.605Z,72.89
2023-02-17T05:47:54.540Z,72.13
2023-02-17T05:48:55.514Z,71.08
2023-02-17T05:49:56.176Z,71.27
2023-02-17T05:50:56.655Z,70.99
2023-02-17T05:51:57.292Z,71.08
2023-02-17T05:52:57.491Z,71.75
2023-02-17T05:53:57.419Z,72.13
2023-02-17T05:54:57.927Z,72.32
2023-02-17T05:55:58.194Z,71.84
2023-02-17T05:56:59.560Z,71.37
2023-02-17T05:58:00.494Z,71.37
2023-02-17T05:59:01.429Z,71.66
2023-02-17T06:00:01.943Z,70.79
2023-02-17T06:01:01.884Z,70.13
2023-02-17T06:02:02.790Z,70.04
2023-02-17T06:03:03.468Z,71.94
2023-02-17T06:04:04.032Z,71.84
2023-02-17T06:05:04.686Z,71.08
2023-02-17T06:06:05.094Z,70.04
2023-02-17T06:07:04.943Z,69.56
2023-02-17T06:08:05.609Z,69.37
2023-02-17T06:09:05.800Z,69.56
2023-02-17T06:10:06.807Z,70.04
2023-02-17T06:11:07.081Z,70.7
2023-02-17T06:12:08.096Z,70.04
2023-02-17T06:13:09.035Z,69.94
2023-02-17T06:14:09.671Z,70.79
2023-02-17T06:15:10.654Z,70.13
2023-02-17T06:16:11.270Z,69.85
2023-02-17T06:17:10.663Z,70.04
2023-02-17T06:18:11.984Z,70.51
2023-02-17T06:19:11.920Z,70.32
2023-02-17T06:20:13.129Z,70.32
2023-02-17T06:21:13.327Z,70.13
2023-02-17T06:22:14.285Z,70.23
2023-02-17T06:23:14.491Z,70.42
2023-02-17T06:24:15.450Z,70.42
2023-02-17T06:25:15.817Z,69.46
2023-02-17T06:26:16.386Z,69.27
2023-02-17T06:27:17.356Z,68.8
2023-02-17T06:28:17.294Z,69.18
2023-02-17T06:29:18.502Z,69.27
2023-02-17T06:30:19.507Z,69.37
2023-02-17T06:31:19.692Z,68.9
2023-02-17T06:32:19.989Z,68.9
2023-02-17T06:33:20.917Z,69.18
2023-02-17T06:34:21.195Z,69.09
2023-02-17T06:35:21.637Z,69.94
2023-02-17T06:36:22.148Z,69.98
2023-02-17T06:37:22.777Z,69.27
2023-02-17T06:38:23.503Z,69.56
2023-02-17T06:39:24.082Z,69.66
2023-02-17T06:40:24.339Z,69.31
2023-02-17T06:41:24.597Z,69.66
2023-02-17T06:42:25.150Z,69.69
2023-02-17T06:43:25.057Z,69.31
2023-02-17T06:44:25.689Z,69.41
2023-02-17T06:45:26.525Z,69.09
2023-02-17T06:46:26.350Z,69.41
2023-02-17T06:47:27.268Z,68.27
2023-02-17T06:48:27.484Z,69.41
2023-02-17T06:49:28.513Z,70.07
2023-02-17T06:50:29.080Z,72.35
2023-02-17T06:51:29.436Z,72.64
2023-02-17T06:52:30.343Z,71.97
2023-02-17T06:53:30.852Z,70.93
2023-02-17T06:54:31.361Z,70.64
2023-02-17T06:55:31.737Z,70.36
2023-02-17T06:56:32.281Z,69.98
2023-02-17T06:57:32.213Z,69.69
2023-02-17T06:58:32.745Z,70.26
2023-02-17T06:59:33.370Z,70.45
2023-02-17T07:00:33.738Z,70.36
2023-02-17T07:01:34.394Z,69.98
2023-02-17T07:02:35.498Z,69.88
2023-02-17T07:03:35.957Z,70.74
2023-02-17T07:04:36.179Z,69.98
2023-02-17T07:05:36.742Z,70.07
2023-02-17T07:06:36.916Z,71.12
2023-02-17T07:07:36.880Z,70.74
2023-02-17T07:08:39.618Z,69.88
2023-02-17T07:09:38.827Z,70.45
2023-02-17T07:10:39.808Z,70.45
2023-02-17T07:11:40.061Z,69.69
2023-02-17T07:12:40.983Z,70.17
2023-02-17T07:13:41.645Z,70.74
2023-02-17T07:14:42.589Z,70.54
2023-02-17T07:15:43.148Z,70.74
2023-02-17T07:16:43.175Z,70.45
2023-02-17T07:17:44.348Z,70.26
2023-02-17T07:18:44.583Z,70.93
2023-02-17T07:19:44.803Z,70.36
2023-02-17T07:20:46.040Z,70.07
2023-02-17T07:21:46.519Z,70.74
2023-02-17T07:22:47.160Z,71.12
2023-02-17T07:23:47.823Z,70.36
2023-02-17T07:24:49.046Z,70.26
2023-02-17T07:25:49.436Z,71.12
2023-02-17T07:26:50.039Z,71.31
2023-02-17T07:27:50.289Z,71.31
2023-02-17T07:28:50.879Z,70.93
2023-02-17T07:29:51.438Z,71.31
2023-02-17T07:30:51.604Z,71.02
2023-02-17T07:31:52.701Z,71.02
2023-02-17T07:32:52.817Z,71.22
2023-02-17T07:33:52.646Z,70.07
2023-02-17T07:34:53.284Z,70.36
2023-02-17T07:35:54.013Z,69.69
2023-02-17T07:36:54.989Z,70.17
2023-02-17T07:37:55.502Z,70.26
2023-02-17T07:38:56.436Z,70.83
2023-02-17T07:39:57.134Z,70.93
2023-02-17T07:40:58.416Z,70.26
2023-02-17T07:41:58.690Z,70.64
2023-02-17T07:42:59.902Z,70.74
2023-02-17T07:44:00.327Z,70.26
2023-02-17T07:45:01.002Z,70.45
2023-02-17T07:46:04.855Z,69.69
2023-02-17T07:47:03.347Z,69.79
2023-02-17T07:48:03.554Z,69.6
2023-02-17T07:49:04.092Z,69.31
2023-02-17T07:50:04.289Z,69.41
2023-02-17T07:51:05.489Z,68.84
2023-02-17T07:52:05.647Z,69.12
2023-02-17T07:53:06.571Z,70.45
2023-02-17T07:54:07.069Z,69.41
2023-02-17T07:55:07.573Z,69.06
2023-02-17T07:56:08.278Z,68.59
2023-02-17T07:57:07.823Z,69.44
2023-02-17T07:58:08.034Z,70.77
2023-02-17T07:59:08.966Z,70.58
2023-02-17T08:00:10.810Z,71.06
2023-02-17T08:01:09.570Z,69.63
2023-02-17T08:02:10.675Z,69.35
2023-02-17T08:03:11.083Z,68.68
2023-02-17T08:04:12.095Z,68.87
2023-02-17T08:05:12.233Z,68.87
2023-02-17T08:06:13.275Z,69.35
2023-02-17T08:07:13.525Z,68.49
2023-02-17T08:08:14.478Z,68.59
2023-02-17T08:09:14.730Z,68.59
2023-02-17T08:10:15.655Z,67.63
2023-02-17T08:11:16.640Z,66.97
2023-02-17T08:12:17.184Z,67.35
2023-02-17T08:13:17.103Z,68.77
2023-02-17T08:14:18.719Z,69.15
2023-02-17T08:15:17.984Z,68.52
2023-02-17T08:16:19.061Z,67.57
2023-02-17T08:17:19.493Z,66.97
2023-02-17T08:18:20.096Z,67.29
2023-02-17T08:19:20.734Z,67.38
2023-02-17T08:20:21.529Z,67.67
2023-02-17T08:21:22.275Z,67.95
2023-02-17T08:22:22.650Z,67.47
2023-02-17T08:23:22.903Z,66.53
2023-02-17T08:24:23.466Z,66.72
2023-02-17T08:25:24.054Z,66.91
2023-02-17T08:26:24.724Z,67
2023-02-17T08:27:25.341Z,67.29
2023-02-17T08:28:25.594Z,67.19
2023-02-17T08:29:26.677Z,67.1
2023-02-17T08:30:27.326Z,67.47
2023-02-17T08:31:27.922Z,67.1
2023-02-17T08:32:27.993Z,67.47
2023-02-17T08:33:28.535Z,67.38
2023-02-17T08:34:28.486Z,67.38
2023-02-17T08:35:29.030Z,67.41
2023-02-17T08:36:30.035Z,67.1
2023-02-17T08:37:30.053Z,67
2023-02-17T08:38:31.049Z,67.32
2023-02-17T08:39:32.421Z,67.22
2023-02-17T08:40:33.384Z,67.41
2023-02-17T08:41:34.444Z,66.56
2023-02-17T08:42:35.104Z,66.27
2023-02-17T08:43:35.532Z,65.51
2023-02-17T08:44:35.874Z,65.42
2023-02-17T08:45:36.521Z,65.61
2023-02-17T08:46:36.876Z,65.89
2023-02-17T08:47:37.142Z,65.23
2023-02-17T08:48:39.843Z,65.51
2023-02-17T08:49:39.389Z,65.61
2023-02-17T08:50:39.318Z,65.7
2023-02-17T08:51:40.315Z,65.7
2023-02-17T08:52:41.621Z,66.08
2023-02-17T08:53:42.377Z,67.03
2023-02-17T08:54:43.437Z,67.03
2023-02-17T08:55:59.946Z,66.59
2023-02-17T08:56:48.714Z,67.07
2023-02-17T08:57:49.144Z,67.16
2023-02-17T08:58:49.620Z,66.97
2023-02-17T08:59:49.932Z,66.69
2023-02-17T09:00:50.857Z,65.73
2023-02-17T09:01:52.285Z,65.83
2023-02-17T09:02:53.010Z,65.83
2023-02-17T09:03:53.459Z,65.64
2023-02-17T09:04:53.849Z,66.59
2023-02-17T09:05:56.040Z,66.31
2023-02-17T09:06:54.709Z,65.67
2023-02-17T09:07:56.076Z,65.86
2023-02-17T09:08:56.467Z,66.44
2023-02-17T09:09:56.939Z,67.1
2023-02-17T09:10:57.776Z,67.29
2023-02-17T09:11:57.957Z,67.86
2023-02-17T09:12:58.425Z,67.77
2023-02-17T09:13:59.357Z,68.24
2023-02-17T09:14:59.736Z,68.05
2023-02-17T09:16:00.569Z,67.77
2023-02-17T09:17:00.996Z,67.58
2023-02-17T09:18:01.659Z,67.1
2023-02-17T09:19:02.027Z,67.23
2023-02-17T09:20:02.135Z,67.33
2023-02-17T09:21:02.518Z,67.33
2023-02-17T09:22:03.540Z,67.33
2023-02-17T09:23:04.256Z,67.61
2023-02-17T09:24:05.238Z,67.04
2023-02-17T09:25:05.512Z,66.66
2023-02-17T09:26:06.815Z,66.85
2023-02-17T09:27:07.159Z,67.33
2023-02-17T09:28:07.762Z,67.27
2023-02-17T09:29:08.512Z,66.94
2023-02-17T09:30:09.480Z,66.69
2023-02-17T09:31:10.494Z,65.93
2023-02-17T09:32:10.793Z,66.6
2023-02-17T09:33:11.069Z,66.6
2023-02-17T09:34:11.362Z,66.12
2023-02-17T09:35:12.442Z,66.22
2023-02-17T09:36:13.509Z,67.07
2023-02-17T09:37:13.629Z,67.46
2023-02-17T09:38:13.690Z,67.74
2023-02-17T09:39:17.740Z,67.65
2023-02-17T09:40:15.223Z,68.79
2023-02-17T09:41:15.798Z,68.03
2023-02-17T09:42:16.601Z,67.07
2023-02-17T09:43:17.380Z,67.55
2023-02-17T09:44:17.631Z,67.46
2023-02-17T09:45:18.621Z,67.74
2023-02-17T09:46:19.061Z,67.36
2023-02-17T09:47:19.759Z,67.27
2023-02-17T09:48:20.662Z,67.27
2023-02-17T09:49:21.230Z,68.22
2023-02-17T09:50:21.924Z,67.93
2023-02-17T09:51:23.050Z,67.07
2023-02-17T09:52:24.267Z,67.36
2023-02-17T09:53:24.420Z,68.79
2023-02-17T09:54:24.513Z,69.46
2023-02-17T09:55:25.559Z,69.65
2023-02-17T09:56:26.115Z,69.84
2023-02-17T09:57:26.470Z,71.37
2023-02-17T09:58:27.195Z,72.71
2023-02-17T09:59:27.611Z,72.83
2023-02-17T10:00:28.053Z,72.89
2023-02-17T10:01:28.719Z,72.8
2023-02-17T10:02:29.143Z,73.47
2023-02-17T10:03:30.387Z,73.47
2023-02-17T10:04:30.513Z,73.56
2023-02-17T10:05:31.638Z,73.94
2023-02-17T10:06:31.828Z,74.04
2023-02-17T10:07:32.645Z,73.56
2023-02-17T10:08:32.692Z,72.99
2023-02-17T10:09:33.818Z,73.08
2023-02-17T10:10:34.272Z,72.99
2023-02-17T10:11:34.692Z,73.08
2023-02-17T10:12:35.213Z,72.89
2023-02-17T10:13:36.002Z,73.47
2023-02-17T10:14:36.787Z,72.55
2023-02-17T10:15:37.490Z,72.26
2023-02-17T10:16:37.914Z,73.03
2023-02-17T10:17:38.289Z,72.55
2023-02-17T10:18:38.299Z,72.26
2023-02-17T10:19:38.737Z,71.88
2023-02-17T10:20:39.177Z,71.31
2023-02-17T10:21:39.715Z,71.41
2023-02-17T10:22:40.264Z,71.12
2023-02-17T10:23:40.925Z,71.21
2023-02-17T10:24:41.068Z,71.69
2023-02-17T10:25:42.065Z,71.59
2023-02-17T10:26:45.005Z,71.31
2023-02-17T10:27:43.295Z,70.92
2023-02-17T10:28:44.170Z,70.73
2023-02-17T10:29:44.922Z,71.21
2023-02-17T10:30:45.781Z,71.21
2023-02-17T10:31:46.129Z,71.5
2023-02-17T10:32:46.340Z,71.21
2023-02-17T10:33:46.973Z,71.88
2023-02-17T10:34:47.055Z,71.41
2023-02-17T10:35:47.227Z,70.83
2023-02-17T10:36:48.075Z,71.5
2023-02-17T10:37:48.868Z,71.78
2023-02-17T10:38:48.994Z,71.21
2023-02-17T10:39:49.654Z,71.44
2023-02-17T10:40:49.860Z,71.31
2023-02-17T10:41:50.380Z,71.06
2023-02-17T10:42:51.407Z,71.02
2023-02-17T10:43:51.450Z,71.25
2023-02-17T10:44:52.708Z,71.34
2023-02-17T10:45:53.152Z,71.34
2023-02-17T10:46:54.597Z,71.25
2023-02-17T10:47:54.807Z,71.82
2023-02-17T10:48:55.493Z,71.63
2023-02-17T10:49:55.861Z,71.44
2023-02-17T10:50:56.404Z,72.01
2023-02-17T10:51:56.773Z,71.82
2023-02-17T10:52:57.745Z,72.11
2023-02-17T10:53:57.659Z,71.44
2023-02-17T10:54:58.208Z,71.92
2023-02-17T10:55:58.818Z,71.92
2023-02-17T10:56:59.088Z,71.92
2023-02-17T10:58:00.184Z,72.2
2023-02-17T10:59:00.748Z,72.2
2023-02-17T11:00:00.960Z,72.01
2023-02-17T11:01:01.002Z,72.2
2023-02-17T11:02:02.256Z,72.2
2023-02-17T11:03:02.784Z,72.3
2023-02-17T11:04:03.035Z,71.82
2023-02-17T11:05:03.754Z,71.34
2023-02-17T11:06:04.463Z,72.2
2023-02-17T11:07:04.569Z,71.72
2023-02-17T11:08:04.645Z,71.63
2023-02-17T11:09:05.623Z,72.2
2023-02-17T11:10:05.902Z,71.82
2023-02-17T11:11:06.137Z,71.63
2023-02-17T11:12:06.645Z,72.01
2023-02-17T11:13:07.210Z,72.62
2023-02-17T11:14:07.772Z,72.43
2023-02-17T11:15:08.043Z,72.33
2023-02-17T11:16:09.146Z,72.53
2023-02-17T11:17:09.596Z,72.81
2023-02-17T11:18:10.290Z,72.24
2023-02-17T11:19:11.197Z,72.91
2023-02-17T11:20:11.820Z,72.33
2023-02-17T11:21:12.268Z,72.87
2023-02-17T11:22:13.282Z,72.87
2023-02-17T11:23:13.229Z,72.72
2023-02-17T11:24:13.893Z,73.16
2023-02-17T11:25:14.829Z,73.07
2023-02-17T11:26:15.052Z,73.63
2023-02-17T11:27:15.256Z,73.54
2023-02-17T11:28:15.685Z,73.35
2023-02-17T11:29:16.333Z,73.83
2023-02-17T11:30:17.352Z,73.16
2023-02-17T11:31:17.561Z,73.92
2023-02-17T11:32:18.373Z,73.63
2023-02-17T11:33:18.608Z,73.83
2023-02-17T11:34:19.249Z,74.11
2023-02-17T11:35:20.464Z,73.63
2023-02-17T11:36:21.436Z,74.02
2023-02-17T11:37:21.694Z,73.73
2023-02-17T11:38:22.475Z,73.44
2023-02-17T11:39:22.724Z,73.44
2023-02-17T11:40:26.606Z,73.35
2023-02-17T11:41:23.885Z,73.73
2023-02-17T11:42:24.089Z,73.73
2023-02-17T11:43:24.474Z,73.54
2023-02-17T11:44:25.054Z,73.73
2023-02-17T11:45:25.325Z,73.83
2023-02-17T11:46:25.471Z,73.44
2023-02-17T11:47:26.384Z,73.63
2023-02-17T11:48:27.027Z,73.44
2023-02-17T11:49:27.235Z,73.48
2023-02-17T11:50:44.416Z,73.58
2023-02-17T11:51:28.088Z,73.19
2023-02-17T11:52:29.389Z,72.91
2023-02-17T11:53:29.614Z,73
2023-02-17T11:54:30.122Z,72.62
2023-02-17T11:55:30.762Z,73.14
2023-02-17T11:56:31.257Z,73.33
2023-02-17T11:57:32.197Z,72.94
2023-02-17T11:58:33.126Z,72.75
2023-02-17T11:59:33.758Z,72.18
2023-02-17T12:00:33.993Z,72.47
2023-02-17T12:01:34.652Z,72.08
2023-02-17T12:02:34.593Z,71.42
2023-02-17T12:03:36.790Z,71.32
2023-02-17T12:04:36.253Z,71.89
2023-02-17T12:05:36.583Z,71.99
2023-02-17T12:06:36.904Z,71.51
2023-02-17T12:07:37.144Z,71.32
2023-02-17T12:08:37.802Z,71.8
2023-02-17T12:09:38.421Z,71.8
2023-02-17T12:10:39.053Z,72.08
2023-02-17T12:11:40.265Z,72.28
2023-02-17T12:12:40.536Z,72.37
2023-02-17T12:13:40.811Z,71.93
2023-02-17T12:14:41.402Z,72.41
2023-02-17T12:15:41.611Z,72.02
2023-02-17T12:16:41.956Z,71.83
2023-02-17T12:17:42.494Z,71.55
2023-02-17T12:18:43.218Z,71.55
2023-02-17T12:19:44.161Z,71.55
2023-02-17T12:20:44.394Z,71.36
2023-02-17T12:21:45.128Z,71.64
2023-02-17T12:22:45.766Z,71.93
2023-02-17T12:23:46.706Z,71.36
2023-02-17T12:24:46.658Z,71.58
2023-02-17T12:25:47.608Z,71.07
2023-02-17T12:26:48.129Z,70.72
2023-02-17T12:27:48.065Z,70.91
2023-02-17T12:28:49.189Z,70.72
2023-02-17T12:29:49.762Z,70.34
2023-02-17T12:30:50.275Z,70.72
2023-02-17T12:31:50.831Z,69.95
2023-02-17T12:32:50.824Z,70.15
2023-02-17T12:33:51.349Z,70.91
2023-02-17T12:34:51.559Z,70.53
2023-02-17T12:35:52.889Z,71.3
2023-02-17T12:36:53.329Z,71.39
2023-02-17T12:37:54.063Z,71.48
2023-02-17T12:38:54.100Z,71.39
2023-02-17T12:39:54.405Z,71.77
2023-02-17T12:40:54.332Z,70.62
2023-02-17T12:41:55.547Z,70.53
2023-02-17T12:42:56.181Z,70.91
2023-02-17T12:43:57.452Z,71.01
2023-02-17T12:44:57.731Z,70.91
2023-02-17T12:45:58.775Z,71.11
2023-02-17T12:46:59.516Z,71.68
2023-02-17T12:47:59.747Z,71.48
2023-02-17T12:49:00.535Z,71.39
2023-02-17T12:50:00.850Z,71.39
2023-02-17T12:51:02.090Z,72.16
2023-02-17T12:52:02.750Z,72.25
2023-02-17T12:53:03.259Z,72.06
2023-02-17T12:54:03.491Z,72.25
2023-02-17T12:55:03.723Z,72.31
2023-02-17T12:56:04.645Z,72.5
2023-02-17T12:57:04.505Z,72.98
2023-02-17T12:58:05.584Z,72.79
2023-02-17T12:59:05.985Z,73.36
2023-02-17T13:00:06.568Z,73.08
2023-02-17T13:01:07.595Z,73.17
2023-02-17T13:02:07.914Z,74.04
2023-02-17T13:03:08.095Z,74.09